sensor_id;sensor_type;location;lat;lon;timestamp;P1;durP1;ratioP1;P2;durP2;ratioP2
32216;SDS011;67098;51.140;4.088;2024-02-21T00:00:56;21.10;;;6.60;;
32216;SDS011;67098;51.140;4.088;2024-02-21T00:03:22;27.70;;;7.32;;
32216;SDS011;67098;51.140;4.088;2024-02-21T00:05:48;22.90;;;6.35;;
32216;SDS011;67098;51.140;4.088;2024-02-21T00:08:14;23.58;;;7.53;;
32216;SDS011;67098;51.140;4.088;2024-02-21T00:10:39;25.65;;;6.80;;
32216;SDS011;67098;51.140;4.088;2024-02-21T00:13:05;23.85;;;6.22;;
32216;SDS011;67098;51.140;4.088;2024-02-21T00:15:31;21.30;;;6.80;;
32216;SDS011;67098;51.140;4.088;2024-02-21T00:17:56;23.98;;;6.80;;
32216;SDS011;67098;51.140;4.088;2024-02-21T00:20:22;30.42;;;7.00;;
32216;SDS011;67098;51.140;4.088;2024-02-21T00:22:48;24.70;;;6.25;;
32216;SDS011;67098;51.140;4.088;2024-02-21T00:25:13;23.02;;;6.30;;
32216;SDS011;67098;51.140;4.088;2024-02-21T00:27:39;20.65;;;6.90;;
32216;SDS011;67098;51.140;4.088;2024-02-21T00:30:05;23.65;;;6.80;;
32216;SDS011;67098;51.140;4.088;2024-02-21T00:32:31;25.95;;;7.03;;
32216;SDS011;67098;51.140;4.088;2024-02-21T00:34:59;24.45;;;7.03;;
32216;SDS011;67098;51.140;4.088;2024-02-21T00:37:25;22.75;;;7.28;;
32216;SDS011;67098;51.140;4.088;2024-02-21T00:39:50;26.45;;;6.97;;
32216;SDS011;67098;51.140;4.088;2024-02-21T00:42:16;29.52;;;7.22;;
32216;SDS011;67098;51.140;4.088;2024-02-21T00:44:42;27.95;;;7.55;;
32216;SDS011;67098;51.140;4.088;2024-02-21T00:47:07;23.25;;;7.07;;
32216;SDS011;67098;51.140;4.088;2024-02-21T00:49:33;26.20;;;7.45;;
32216;SDS011;67098;51.140;4.088;2024-02-21T00:51:59;25.88;;;6.90;;
32216;SDS011;67098;51.140;4.088;2024-02-21T00:54:25;18.35;;;7.32;;
32216;SDS011;67098;51.140;4.088;2024-02-21T00:56:50;24.02;;;8.80;;
32216;SDS011;67098;51.140;4.088;2024-02-21T00:59:16;29.13;;;7.30;;
32216;SDS011;67098;51.140;4.088;2024-02-21T01:01:43;26.17;;;8.02;;
32216;SDS011;67098;51.140;4.088;2024-02-21T01:04:09;20.98;;;7.30;;
32216;SDS011;67098;51.140;4.088;2024-02-21T01:06:35;24.38;;;6.65;;
32216;SDS011;67098;51.140;4.088;2024-02-21T01:09:01;22.92;;;7.82;;
32216;SDS011;67098;51.140;4.088;2024-02-21T01:11:26;34.22;;;8.15;;
32216;SDS011;67098;51.140;4.088;2024-02-21T01:13:54;21.08;;;7.18;;
32216;SDS011;67098;51.140;4.088;2024-02-21T01:16:20;29.48;;;8.65;;
32216;SDS011;67098;51.140;4.088;2024-02-21T01:18:46;21.75;;;6.88;;
32216;SDS011;67098;51.140;4.088;2024-02-21T01:21:12;19.25;;;6.72;;
32216;SDS011;67098;51.140;4.088;2024-02-21T01:23:38;28.83;;;7.45;;
32216;SDS011;67098;51.140;4.088;2024-02-21T01:26:04;23.35;;;6.75;;
32216;SDS011;67098;51.140;4.088;2024-02-21T01:28:30;22.10;;;6.65;;
32216;SDS011;67098;51.140;4.088;2024-02-21T01:30:56;25.45;;;7.18;;
32216;SDS011;67098;51.140;4.088;2024-02-21T01:33:22;19.42;;;6.90;;
32216;SDS011;67098;51.140;4.088;2024-02-21T01:35:48;29.88;;;7.53;;
32216;SDS011;67098;51.140;4.088;2024-02-21T01:38:14;25.67;;;7.43;;
32216;SDS011;67098;51.140;4.088;2024-02-21T01:40:40;25.45;;;7.90;;
32216;SDS011;67098;51.140;4.088;2024-02-21T01:43:15;30.50;;;7.35;;
32216;SDS011;67098;51.140;4.088;2024-02-21T01:45:45;25.90;;;7.22;;
32216;SDS011;67098;51.140;4.088;2024-02-21T01:48:13;23.15;;;7.05;;
32216;SDS011;67098;51.140;4.088;2024-02-21T01:50:40;25.35;;;7.30;;
32216;SDS011;67098;51.140;4.088;2024-02-21T01:53:06;23.73;;;7.63;;
32216;SDS011;67098;51.140;4.088;2024-02-21T01:55:32;22.88;;;7.35;;
32216;SDS011;67098;51.140;4.088;2024-02-21T01:57:59;26.90;;;7.95;;
32216;SDS011;67098;51.140;4.088;2024-02-21T02:00:25;24.20;;;8.05;;
32216;SDS011;67098;51.140;4.088;2024-02-21T02:02:51;20.33;;;7.35;;
32216;SDS011;67098;51.140;4.088;2024-02-21T02:05:17;20.63;;;6.68;;
32216;SDS011;67098;51.140;4.088;2024-02-21T02:07:46;24.90;;;7.25;;
32216;SDS011;67098;51.140;4.088;2024-02-21T02:10:12;19.33;;;7.13;;
32216;SDS011;67098;51.140;4.088;2024-02-21T02:12:38;24.95;;;8.07;;
32216;SDS011;67098;51.140;4.088;2024-02-21T02:15:04;32.67;;;9.00;;
32216;SDS011;67098;51.140;4.088;2024-02-21T02:17:30;24.50;;;9.13;;
32216;SDS011;67098;51.140;4.088;2024-02-21T02:19:56;32.88;;;9.55;;
32216;SDS011;67098;51.140;4.088;2024-02-21T02:22:28;28.65;;;9.55;;
32216;SDS011;67098;51.140;4.088;2024-02-21T02:24:54;35.08;;;9.25;;
32216;SDS011;67098;51.140;4.088;2024-02-21T02:27:20;32.25;;;9.32;;
32216;SDS011;67098;51.140;4.088;2024-02-21T02:29:48;35.45;;;9.90;;
32216;SDS011;67098;51.140;4.088;2024-02-21T02:32:14;40.05;;;11.27;;
32216;SDS011;67098;51.140;4.088;2024-02-21T02:34:40;29.58;;;10.07;;
32216;SDS011;67098;51.140;4.088;2024-02-21T02:37:05;36.30;;;11.52;;
32216;SDS011;67098;51.140;4.088;2024-02-21T02:39:31;36.67;;;11.77;;
32216;SDS011;67098;51.140;4.088;2024-02-21T02:41:57;40.45;;;10.98;;
32216;SDS011;67098;51.140;4.088;2024-02-21T02:44:23;40.22;;;10.55;;
32216;SDS011;67098;51.140;4.088;2024-02-21T02:46:49;34.25;;;9.98;;
32216;SDS011;67098;51.140;4.088;2024-02-21T02:49:14;29.98;;;10.23;;
32216;SDS011;67098;51.140;4.088;2024-02-21T02:51:41;30.35;;;10.15;;
32216;SDS011;67098;51.140;4.088;2024-02-21T02:54:08;35.35;;;10.68;;
32216;SDS011;67098;51.140;4.088;2024-02-21T02:56:34;37.22;;;10.52;;
32216;SDS011;67098;51.140;4.088;2024-02-21T02:58:59;38.20;;;11.60;;
32216;SDS011;67098;51.140;4.088;2024-02-21T03:01:25;40.65;;;12.23;;
32216;SDS011;67098;51.140;4.088;2024-02-21T03:03:51;40.80;;;11.52;;
32216;SDS011;67098;51.140;4.088;2024-02-21T03:06:17;41.58;;;12.65;;
32216;SDS011;67098;51.140;4.088;2024-02-21T03:08:42;44.75;;;11.75;;
32216;SDS011;67098;51.140;4.088;2024-02-21T03:11:08;39.65;;;12.57;;
32216;SDS011;67098;51.140;4.088;2024-02-21T03:13:36;37.33;;;12.38;;
32216;SDS011;67098;51.140;4.088;2024-02-21T03:16:01;35.33;;;12.15;;
32216;SDS011;67098;51.140;4.088;2024-02-21T03:18:27;35.90;;;11.50;;
32216;SDS011;67098;51.140;4.088;2024-02-21T03:20:53;35.08;;;12.00;;
32216;SDS011;67098;51.140;4.088;2024-02-21T03:23:19;38.10;;;12.02;;
32216;SDS011;67098;51.140;4.088;2024-02-21T03:25:44;30.52;;;11.50;;
32216;SDS011;67098;51.140;4.088;2024-02-21T03:28:11;36.85;;;11.68;;
32216;SDS011;67098;51.140;4.088;2024-02-21T03:30:36;40.10;;;11.57;;
32216;SDS011;67098;51.140;4.088;2024-02-21T03:33:02;35.80;;;11.02;;
32216;SDS011;67098;51.140;4.088;2024-02-21T03:35:28;34.20;;;11.07;;
32216;SDS011;67098;51.140;4.088;2024-02-21T03:37:54;44.05;;;11.73;;
32216;SDS011;67098;51.140;4.088;2024-02-21T03:40:19;40.08;;;12.52;;
32216;SDS011;67098;51.140;4.088;2024-02-21T03:42:45;32.78;;;11.07;;
32216;SDS011;67098;51.140;4.088;2024-02-21T03:45:11;30.77;;;11.48;;
32216;SDS011;67098;51.140;4.088;2024-02-21T03:47:37;37.53;;;11.23;;
32216;SDS011;67098;51.140;4.088;2024-02-21T03:50:03;35.40;;;12.52;;
32216;SDS011;67098;51.140;4.088;2024-02-21T03:52:30;35.55;;;11.23;;
32216;SDS011;67098;51.140;4.088;2024-02-21T03:54:56;34.10;;;11.60;;
32216;SDS011;67098;51.140;4.088;2024-02-21T03:57:21;36.42;;;11.80;;
32216;SDS011;67098;51.140;4.088;2024-02-21T03:59:50;34.55;;;12.55;;
32216;SDS011;67098;51.140;4.088;2024-02-21T04:02:16;40.03;;;12.73;;
32216;SDS011;67098;51.140;4.088;2024-02-21T04:04:43;37.35;;;11.60;;
32216;SDS011;67098;51.140;4.088;2024-02-21T04:07:12;29.10;;;12.07;;
32216;SDS011;67098;51.140;4.088;2024-02-21T04:09:38;37.50;;;11.57;;
32216;SDS011;67098;51.140;4.088;2024-02-21T04:12:04;30.13;;;11.40;;
32216;SDS011;67098;51.140;4.088;2024-02-21T04:14:30;38.55;;;12.77;;
32216;SDS011;67098;51.140;4.088;2024-02-21T04:16:57;37.15;;;11.43;;
32216;SDS011;67098;51.140;4.088;2024-02-21T04:19:22;32.92;;;11.77;;
32216;SDS011;67098;51.140;4.088;2024-02-21T04:21:48;35.75;;;11.55;;
32216;SDS011;67098;51.140;4.088;2024-02-21T04:24:14;32.13;;;11.75;;
32216;SDS011;67098;51.140;4.088;2024-02-21T04:26:40;36.35;;;11.88;;
32216;SDS011;67098;51.140;4.088;2024-02-21T04:29:05;34.17;;;11.55;;
32216;SDS011;67098;51.140;4.088;2024-02-21T04:31:34;34.20;;;13.15;;
32216;SDS011;67098;51.140;4.088;2024-02-21T04:34:00;34.20;;;11.70;;
32216;SDS011;67098;51.140;4.088;2024-02-21T04:36:25;30.42;;;11.60;;
32216;SDS011;67098;51.140;4.088;2024-02-21T04:38:51;34.42;;;11.90;;
32216;SDS011;67098;51.140;4.088;2024-02-21T04:41:17;34.85;;;12.35;;
32216;SDS011;67098;51.140;4.088;2024-02-21T04:43:43;39.55;;;12.18;;
32216;SDS011;67098;51.140;4.088;2024-02-21T04:46:08;38.10;;;12.77;;
32216;SDS011;67098;51.140;4.088;2024-02-21T04:48:35;40.83;;;13.60;;
32216;SDS011;67098;51.140;4.088;2024-02-21T04:51:00;34.30;;;13.07;;
32216;SDS011;67098;51.140;4.088;2024-02-21T04:53:26;39.47;;;12.90;;
32216;SDS011;67098;51.140;4.088;2024-02-21T04:55:52;32.92;;;12.52;;
32216;SDS011;67098;51.140;4.088;2024-02-21T04:58:18;31.77;;;12.90;;
32216;SDS011;67098;51.140;4.088;2024-02-21T05:00:43;33.00;;;12.38;;
32216;SDS011;67098;51.140;4.088;2024-02-21T05:03:09;33.83;;;13.43;;
32216;SDS011;67098;51.140;4.088;2024-02-21T05:05:36;32.88;;;12.98;;
32216;SDS011;67098;51.140;4.088;2024-02-21T05:08:02;30.83;;;12.85;;
32216;SDS011;67098;51.140;4.088;2024-02-21T05:10:28;40.90;;;13.73;;
32216;SDS011;67098;51.140;4.088;2024-02-21T05:12:53;38.65;;;12.55;;
32216;SDS011;67098;51.140;4.088;2024-02-21T05:15:19;36.05;;;12.52;;
32216;SDS011;67098;51.140;4.088;2024-02-21T05:17:45;35.33;;;12.80;;
32216;SDS011;67098;51.140;4.088;2024-02-21T05:20:10;32.38;;;12.43;;
32216;SDS011;67098;51.140;4.088;2024-02-21T05:22:36;31.55;;;12.15;;
32216;SDS011;67098;51.140;4.088;2024-02-21T05:25:02;36.28;;;12.68;;
32216;SDS011;67098;51.140;4.088;2024-02-21T05:27:28;37.53;;;12.32;;
32216;SDS011;67098;51.140;4.088;2024-02-21T05:29:54;39.10;;;12.40;;
32216;SDS011;67098;51.140;4.088;2024-02-21T05:32:20;39.08;;;13.23;;
32216;SDS011;67098;51.140;4.088;2024-02-21T05:34:48;30.65;;;12.50;;
32216;SDS011;67098;51.140;4.088;2024-02-21T05:37:15;31.23;;;11.95;;
32216;SDS011;67098;51.140;4.088;2024-02-21T05:39:40;25.02;;;12.35;;
32216;SDS011;67098;51.140;4.088;2024-02-21T05:42:06;38.20;;;13.20;;
32216;SDS011;67098;51.140;4.088;2024-02-21T05:44:32;33.08;;;12.05;;
32216;SDS011;67098;51.140;4.088;2024-02-21T05:46:58;32.42;;;12.77;;
32216;SDS011;67098;51.140;4.088;2024-02-21T05:49:24;43.75;;;13.77;;
32216;SDS011;67098;51.140;4.088;2024-02-21T05:51:49;30.23;;;12.43;;
32216;SDS011;67098;51.140;4.088;2024-02-21T05:54:15;36.28;;;12.15;;
32216;SDS011;67098;51.140;4.088;2024-02-21T05:56:44;36.72;;;12.32;;
32216;SDS011;67098;51.140;4.088;2024-02-21T05:59:11;31.92;;;12.60;;
32216;SDS011;67098;51.140;4.088;2024-02-21T06:01:37;36.45;;;12.93;;
32216;SDS011;67098;51.140;4.088;2024-02-21T06:04:02;32.05;;;12.77;;
32216;SDS011;67098;51.140;4.088;2024-02-21T06:06:29;33.17;;;12.88;;
32216;SDS011;67098;51.140;4.088;2024-02-21T06:08:55;34.08;;;12.00;;
32216;SDS011;67098;51.140;4.088;2024-02-21T06:11:22;31.40;;;12.70;;
32216;SDS011;67098;51.140;4.088;2024-02-21T06:13:48;35.85;;;12.18;;
32216;SDS011;67098;51.140;4.088;2024-02-21T06:16:13;39.83;;;13.15;;
32216;SDS011;67098;51.140;4.088;2024-02-21T06:18:39;32.72;;;13.25;;
32216;SDS011;67098;51.140;4.088;2024-02-21T06:21:05;33.33;;;12.18;;
32216;SDS011;67098;51.140;4.088;2024-02-21T06:23:31;27.95;;;12.35;;
32216;SDS011;67098;51.140;4.088;2024-02-21T06:25:56;29.98;;;12.48;;
32216;SDS011;67098;51.140;4.088;2024-02-21T06:28:22;36.55;;;13.18;;
32216;SDS011;67098;51.140;4.088;2024-02-21T06:30:48;31.25;;;13.07;;
32216;SDS011;67098;51.140;4.088;2024-02-21T06:33:13;27.95;;;11.63;;
32216;SDS011;67098;51.140;4.088;2024-02-21T06:35:39;30.10;;;12.73;;
32216;SDS011;67098;51.140;4.088;2024-02-21T06:38:07;25.65;;;12.45;;
32216;SDS011;67098;51.140;4.088;2024-02-21T06:40:33;30.42;;;12.52;;
32216;SDS011;67098;51.140;4.088;2024-02-21T06:43:04;29.77;;;13.38;;
32216;SDS011;67098;51.140;4.088;2024-02-21T06:45:30;37.05;;;14.35;;
32216;SDS011;67098;51.140;4.088;2024-02-21T06:47:55;31.38;;;12.50;;
32216;SDS011;67098;51.140;4.088;2024-02-21T06:50:21;33.42;;;12.52;;
32216;SDS011;67098;51.140;4.088;2024-02-21T06:52:47;34.63;;;12.68;;
32216;SDS011;67098;51.140;4.088;2024-02-21T06:55:13;27.92;;;13.13;;
32216;SDS011;67098;51.140;4.088;2024-02-21T06:57:39;31.08;;;13.60;;
32216;SDS011;67098;51.140;4.088;2024-02-21T07:00:04;35.95;;;13.25;;
32216;SDS011;67098;51.140;4.088;2024-02-21T07:02:33;28.58;;;13.55;;
32216;SDS011;67098;51.140;4.088;2024-02-21T07:04:59;25.17;;;12.40;;
32216;SDS011;67098;51.140;4.088;2024-02-21T07:07:25;31.00;;;14.02;;
32216;SDS011;67098;51.140;4.088;2024-02-21T07:09:51;23.08;;;13.43;;
32216;SDS011;67098;51.140;4.088;2024-02-21T07:12:18;33.58;;;13.27;;
32216;SDS011;67098;51.140;4.088;2024-02-21T07:14:44;33.78;;;13.45;;
32216;SDS011;67098;51.140;4.088;2024-02-21T07:17:10;25.92;;;11.82;;
32216;SDS011;67098;51.140;4.088;2024-02-21T07:19:36;27.33;;;12.25;;
32216;SDS011;67098;51.140;4.088;2024-02-21T07:22:01;26.67;;;11.65;;
32216;SDS011;67098;51.140;4.088;2024-02-21T07:24:28;31.05;;;12.52;;
32216;SDS011;67098;51.140;4.088;2024-02-21T07:26:53;28.23;;;11.88;;
32216;SDS011;67098;51.140;4.088;2024-02-21T07:29:19;21.27;;;11.10;;
32216;SDS011;67098;51.140;4.088;2024-02-21T07:31:45;21.75;;;10.20;;
32216;SDS011;67098;51.140;4.088;2024-02-21T07:34:11;26.63;;;11.98;;
32216;SDS011;67098;51.140;4.088;2024-02-21T07:36:37;20.92;;;10.00;;
32216;SDS011;67098;51.140;4.088;2024-02-21T07:39:03;24.17;;;11.15;;
32216;SDS011;67098;51.140;4.088;2024-02-21T07:41:29;28.15;;;11.20;;
32216;SDS011;67098;51.140;4.088;2024-02-21T07:43:56;22.77;;;10.85;;
32216;SDS011;67098;51.140;4.088;2024-02-21T07:46:22;22.08;;;10.65;;
32216;SDS011;67098;51.140;4.088;2024-02-21T07:48:47;23.13;;;10.80;;
32216;SDS011;67098;51.140;4.088;2024-02-21T07:51:13;18.10;;;11.10;;
32216;SDS011;67098;51.140;4.088;2024-02-21T07:53:39;25.85;;;11.68;;
32216;SDS011;67098;51.140;4.088;2024-02-21T07:56:12;21.30;;;9.90;;
32216;SDS011;67098;51.140;4.088;2024-02-21T07:58:39;18.60;;;10.80;;
32216;SDS011;67098;51.140;4.088;2024-02-21T08:01:05;22.35;;;10.10;;
32216;SDS011;67098;51.140;4.088;2024-02-21T08:03:31;22.45;;;10.45;;
32216;SDS011;67098;51.140;4.088;2024-02-21T08:05:57;21.23;;;10.15;;
32216;SDS011;67098;51.140;4.088;2024-02-21T08:08:22;18.48;;;10.32;;
32216;SDS011;67098;51.140;4.088;2024-02-21T08:10:50;26.33;;;10.98;;
32216;SDS011;67098;51.140;4.088;2024-02-21T08:13:15;16.55;;;9.70;;
32216;SDS011;67098;51.140;4.088;2024-02-21T08:15:41;21.90;;;10.85;;
32216;SDS011;67098;51.140;4.088;2024-02-21T08:18:07;22.20;;;10.63;;
32216;SDS011;67098;51.140;4.088;2024-02-21T08:20:34;22.35;;;10.48;;
32216;SDS011;67098;51.140;4.088;2024-02-21T08:23:00;19.63;;;10.40;;
32216;SDS011;67098;51.140;4.088;2024-02-21T08:25:26;22.48;;;10.35;;
32216;SDS011;67098;51.140;4.088;2024-02-21T08:27:53;20.50;;;9.68;;
32216;SDS011;67098;51.140;4.088;2024-02-21T08:30:22;20.35;;;10.15;;
32216;SDS011;67098;51.140;4.088;2024-02-21T08:32:48;18.67;;;9.65;;
32216;SDS011;67098;51.140;4.088;2024-02-21T08:35:13;24.10;;;10.30;;
32216;SDS011;67098;51.140;4.088;2024-02-21T08:37:39;25.50;;;11.45;;
32216;SDS011;67098;51.140;4.088;2024-02-21T08:40:05;22.70;;;9.45;;
32216;SDS011;67098;51.140;4.088;2024-02-21T08:42:36;22.30;;;11.38;;
32216;SDS011;67098;51.140;4.088;2024-02-21T08:45:04;22.73;;;10.63;;
32216;SDS011;67098;51.140;4.088;2024-02-21T08:47:30;22.92;;;10.90;;
32216;SDS011;67098;51.140;4.088;2024-02-21T08:49:56;21.33;;;10.73;;
32216;SDS011;67098;51.140;4.088;2024-02-21T08:52:21;25.73;;;10.75;;
32216;SDS011;67098;51.140;4.088;2024-02-21T08:54:47;28.70;;;11.50;;
32216;SDS011;67098;51.140;4.088;2024-02-21T08:57:13;24.83;;;11.52;;
32216;SDS011;67098;51.140;4.088;2024-02-21T08:59:39;18.92;;;11.38;;
32216;SDS011;67098;51.140;4.088;2024-02-21T09:02:05;18.05;;;10.60;;
32216;SDS011;67098;51.140;4.088;2024-02-21T09:04:32;26.27;;;11.02;;
32216;SDS011;67098;51.140;4.088;2024-02-21T09:06:58;19.92;;;10.40;;
32216;SDS011;67098;51.140;4.088;2024-02-21T09:09:24;24.13;;;10.77;;
32216;SDS011;67098;51.140;4.088;2024-02-21T09:11:50;25.00;;;10.55;;
32216;SDS011;67098;51.140;4.088;2024-02-21T09:14:17;25.33;;;10.68;;
32216;SDS011;67098;51.140;4.088;2024-02-21T09:16:43;16.88;;;9.68;;
32216;SDS011;67098;51.140;4.088;2024-02-21T09:19:09;21.75;;;11.75;;
32216;SDS011;67098;51.140;4.088;2024-02-21T09:21:37;20.92;;;10.00;;
32216;SDS011;67098;51.140;4.088;2024-02-21T09:24:04;15.48;;;9.30;;
32216;SDS011;67098;51.140;4.088;2024-02-21T09:26:31;27.38;;;10.68;;
32216;SDS011;67098;51.140;4.088;2024-02-21T09:28:56;21.80;;;10.02;;
32216;SDS011;67098;51.140;4.088;2024-02-21T09:31:22;19.52;;;9.30;;
32216;SDS011;67098;51.140;4.088;2024-02-21T09:33:48;23.27;;;9.07;;
32216;SDS011;67098;51.140;4.088;2024-02-21T09:36:14;18.50;;;9.60;;
32216;SDS011;67098;51.140;4.088;2024-02-21T09:38:40;24.88;;;9.93;;
32216;SDS011;67098;51.140;4.088;2024-02-21T09:41:16;18.50;;;8.07;;
32216;SDS011;67098;51.140;4.088;2024-02-21T09:43:43;16.80;;;8.40;;
32216;SDS011;67098;51.140;4.088;2024-02-21T09:46:16;23.88;;;9.15;;
32216;SDS011;67098;51.140;4.088;2024-02-21T09:52:00;17.35;;;8.05;;
32216;SDS011;67098;51.140;4.088;2024-02-21T09:54:30;21.20;;;8.35;;
32216;SDS011;67098;51.140;4.088;2024-02-21T09:56:57;19.42;;;8.30;;
32216;SDS011;67098;51.140;4.088;2024-02-21T09:59:23;17.88;;;6.97;;
32216;SDS011;67098;51.140;4.088;2024-02-21T10:01:51;17.85;;;7.25;;
32216;SDS011;67098;51.140;4.088;2024-02-21T10:04:16;21.77;;;6.93;;
32216;SDS011;67098;51.140;4.088;2024-02-21T10:06:43;16.63;;;6.85;;
32216;SDS011;67098;51.140;4.088;2024-02-21T10:09:19;16.63;;;6.68;;
32216;SDS011;67098;51.140;4.088;2024-02-21T10:11:47;16.13;;;6.28;;
32216;SDS011;67098;51.140;4.088;2024-02-21T10:14:12;15.20;;;6.85;;
32216;SDS011;67098;51.140;4.088;2024-02-21T10:16:39;17.60;;;6.57;;
32216;SDS011;67098;51.140;4.088;2024-02-21T10:19:05;14.00;;;6.40;;
32216;SDS011;67098;51.140;4.088;2024-02-21T10:21:30;16.73;;;6.63;;
32216;SDS011;67098;51.140;4.088;2024-02-21T10:23:56;17.30;;;5.97;;
32216;SDS011;67098;51.140;4.088;2024-02-21T10:26:22;21.17;;;6.78;;
32216;SDS011;67098;51.140;4.088;2024-02-21T10:28:48;16.40;;;5.55;;
32216;SDS011;67098;51.140;4.088;2024-02-21T10:31:23;15.45;;;5.88;;
32216;SDS011;67098;51.140;4.088;2024-02-21T10:34:01;12.80;;;6.28;;
32216;SDS011;67098;51.140;4.088;2024-02-21T10:38:56;29.90;;;5.95;;
32216;SDS011;67098;51.140;4.088;2024-02-21T10:41:23;15.43;;;5.82;;
32216;SDS011;67098;51.140;4.088;2024-02-21T10:43:53;14.63;;;6.43;;
32216;SDS011;67098;51.140;4.088;2024-02-21T10:46:20;14.25;;;5.90;;
32216;SDS011;67098;51.140;4.088;2024-02-21T10:48:48;10.85;;;5.50;;
32216;SDS011;67098;51.140;4.088;2024-02-21T10:51:27;12.43;;;5.07;;
32216;SDS011;67098;51.140;4.088;2024-02-21T10:56:29;12.95;;;5.53;;
32216;SDS011;67098;51.140;4.088;2024-02-21T10:59:05;15.10;;;5.63;;
32216;SDS011;67098;51.140;4.088;2024-02-21T11:01:32;14.60;;;5.10;;
32216;SDS011;67098;51.140;4.088;2024-02-21T11:04:07;15.38;;;5.15;;
32216;SDS011;67098;51.140;4.088;2024-02-21T11:06:36;17.60;;;5.07;;
32216;SDS011;67098;51.140;4.088;2024-02-21T11:09:04;13.95;;;4.82;;
32216;SDS011;67098;51.140;4.088;2024-02-21T11:11:34;12.52;;;4.93;;
32216;SDS011;67098;51.140;4.088;2024-02-21T11:14:05;22.95;;;9.45;;
32216;SDS011;67098;51.140;4.088;2024-02-21T11:16:44;24.30;;;9.70;;
32216;SDS011;67098;51.140;4.088;2024-02-21T11:19:18;15.73;;;6.63;;
32216;SDS011;67098;51.140;4.088;2024-02-21T11:21:45;14.50;;;5.38;;
32216;SDS011;67098;51.140;4.088;2024-02-21T11:24:11;17.45;;;5.20;;
32216;SDS011;67098;51.140;4.088;2024-02-21T11:26:40;15.23;;;5.38;;
32216;SDS011;67098;51.140;4.088;2024-02-21T11:29:08;14.77;;;5.03;;
32216;SDS011;67098;51.140;4.088;2024-02-21T11:31:42;14.60;;;4.82;;
32216;SDS011;67098;51.140;4.088;2024-02-21T11:34:09;19.58;;;5.32;;
32216;SDS011;67098;51.140;4.088;2024-02-21T11:36:36;17.05;;;5.70;;
32216;SDS011;67098;51.140;4.088;2024-02-21T11:39:11;19.45;;;5.45;;
32216;SDS011;67098;51.140;4.088;2024-02-21T11:41:37;15.20;;;5.05;;
32216;SDS011;67098;51.140;4.088;2024-02-21T11:44:02;20.05;;;4.90;;
32216;SDS011;67098;51.140;4.088;2024-02-21T11:46:29;17.23;;;4.82;;
32216;SDS011;67098;51.140;4.088;2024-02-21T11:48:56;14.63;;;5.07;;
32216;SDS011;67098;51.140;4.088;2024-02-21T11:51:25;14.25;;;4.88;;
32216;SDS011;67098;51.140;4.088;2024-02-21T11:53:52;10.98;;;5.03;;
32216;SDS011;67098;51.140;4.088;2024-02-21T11:56:18;14.70;;;5.00;;
32216;SDS011;67098;51.140;4.088;2024-02-21T11:58:48;14.68;;;5.28;;
32216;SDS011;67098;51.140;4.088;2024-02-21T12:01:14;14.23;;;4.53;;
32216;SDS011;67098;51.140;4.088;2024-02-21T12:03:40;11.48;;;5.13;;
32216;SDS011;67098;51.140;4.088;2024-02-21T12:06:07;13.70;;;4.57;;
32216;SDS011;67098;51.140;4.088;2024-02-21T12:08:45;14.43;;;5.22;;
32216;SDS011;67098;51.140;4.088;2024-02-21T12:11:23;18.25;;;5.07;;
32216;SDS011;67098;51.140;4.088;2024-02-21T12:13:58;9.35;;;4.38;;
32216;SDS011;67098;51.140;4.088;2024-02-21T12:16:26;16.13;;;4.65;;
32216;SDS011;67098;51.140;4.088;2024-02-21T12:18:53;17.88;;;5.55;;
32216;SDS011;67098;51.140;4.088;2024-02-21T12:21:19;17.50;;;6.97;;
32216;SDS011;67098;51.140;4.088;2024-02-21T12:23:49;15.38;;;5.70;;
32216;SDS011;67098;51.140;4.088;2024-02-21T12:26:15;14.60;;;5.15;;
32216;SDS011;67098;51.140;4.088;2024-02-21T12:28:40;15.82;;;5.65;;
32216;SDS011;67098;51.140;4.088;2024-02-21T12:31:06;15.63;;;5.03;;
32216;SDS011;67098;51.140;4.088;2024-02-21T12:33:32;13.20;;;5.47;;
32216;SDS011;67098;51.140;4.088;2024-02-21T12:35:58;9.70;;;4.50;;
32216;SDS011;67098;51.140;4.088;2024-02-21T12:38:24;13.68;;;4.53;;
32216;SDS011;67098;51.140;4.088;2024-02-21T12:40:49;10.48;;;5.20;;
32216;SDS011;67098;51.140;4.088;2024-02-21T12:43:15;10.00;;;4.40;;
32216;SDS011;67098;51.140;4.088;2024-02-21T12:45:41;13.65;;;4.40;;
32216;SDS011;67098;51.140;4.088;2024-02-21T12:48:07;14.50;;;4.70;;
32216;SDS011;67098;51.140;4.088;2024-02-21T12:50:33;11.95;;;4.63;;
32216;SDS011;67098;51.140;4.088;2024-02-21T12:52:58;11.48;;;4.50;;
32216;SDS011;67098;51.140;4.088;2024-02-21T12:55:24;12.10;;;4.68;;
32216;SDS011;67098;51.140;4.088;2024-02-21T12:57:50;13.55;;;5.05;;
32216;SDS011;67098;51.140;4.088;2024-02-21T13:00:17;10.98;;;3.67;;
32216;SDS011;67098;51.140;4.088;2024-02-21T13:02:43;8.73;;;4.18;;
32216;SDS011;67098;51.140;4.088;2024-02-21T13:05:11;13.90;;;4.40;;
32216;SDS011;67098;51.140;4.088;2024-02-21T13:07:37;10.00;;;4.15;;
32216;SDS011;67098;51.140;4.088;2024-02-21T13:10:03;19.67;;;4.65;;
32216;SDS011;67098;51.140;4.088;2024-02-21T13:12:30;12.13;;;4.55;;
32216;SDS011;67098;51.140;4.088;2024-02-21T13:14:56;10.35;;;4.30;;
32216;SDS011;67098;51.140;4.088;2024-02-21T13:17:21;12.45;;;4.25;;
32216;SDS011;67098;51.140;4.088;2024-02-21T13:19:47;11.82;;;4.20;;
32216;SDS011;67098;51.140;4.088;2024-02-21T13:22:13;11.95;;;4.82;;
32216;SDS011;67098;51.140;4.088;2024-02-21T13:24:39;10.82;;;4.18;;
32216;SDS011;67098;51.140;4.088;2024-02-21T13:27:04;12.68;;;4.40;;
32216;SDS011;67098;51.140;4.088;2024-02-21T13:29:30;14.82;;;4.50;;
32216;SDS011;67098;51.140;4.088;2024-02-21T13:31:56;12.02;;;4.72;;
32216;SDS011;67098;51.140;4.088;2024-02-21T13:34:22;9.98;;;4.75;;
32216;SDS011;67098;51.140;4.088;2024-02-21T13:36:48;11.13;;;4.18;;
32216;SDS011;67098;51.140;4.088;2024-02-21T13:39:13;8.27;;;4.07;;
32216;SDS011;67098;51.140;4.088;2024-02-21T13:41:41;11.52;;;4.68;;
32216;SDS011;67098;51.140;4.088;2024-02-21T13:44:07;11.23;;;4.97;;
32216;SDS011;67098;51.140;4.088;2024-02-21T13:46:34;16.83;;;5.18;;
32216;SDS011;67098;51.140;4.088;2024-02-21T13:49:04;12.88;;;4.55;;
32216;SDS011;67098;51.140;4.088;2024-02-21T13:51:34;10.98;;;5.18;;
32216;SDS011;67098;51.140;4.088;2024-02-21T13:54:03;10.95;;;5.10;;
32216;SDS011;67098;51.140;4.088;2024-02-21T13:56:29;18.58;;;5.75;;
32216;SDS011;67098;51.140;4.088;2024-02-21T13:58:55;12.10;;;5.55;;
32216;SDS011;67098;51.140;4.088;2024-02-21T14:01:23;20.73;;;5.18;;
32216;SDS011;67098;51.140;4.088;2024-02-21T14:03:48;14.18;;;6.03;;
32216;SDS011;67098;51.140;4.088;2024-02-21T14:06:14;15.80;;;5.00;;
32216;SDS011;67098;51.140;4.088;2024-02-21T14:08:40;13.35;;;5.85;;
32216;SDS011;67098;51.140;4.088;2024-02-21T14:11:06;14.07;;;5.72;;
32216;SDS011;67098;51.140;4.088;2024-02-21T14:13:32;17.13;;;5.60;;
32216;SDS011;67098;51.140;4.088;2024-02-21T14:15:58;14.23;;;6.25;;
32216;SDS011;67098;51.140;4.088;2024-02-21T14:18:23;12.40;;;6.20;;
32216;SDS011;67098;51.140;4.088;2024-02-21T14:20:49;15.27;;;5.97;;
32216;SDS011;67098;51.140;4.088;2024-02-21T14:23:15;18.60;;;7.40;;
32216;SDS011;67098;51.140;4.088;2024-02-21T14:25:41;15.27;;;6.68;;
32216;SDS011;67098;51.140;4.088;2024-02-21T14:28:07;14.10;;;5.95;;
32216;SDS011;67098;51.140;4.088;2024-02-21T14:30:36;17.10;;;7.07;;
32216;SDS011;67098;51.140;4.088;2024-02-21T14:33:02;16.10;;;5.82;;